Aeroporto :
LOGIN :

Iscrizione | Disclaimer

   EN    FR    IT 

 










Sommario :    VFR   VFR Marginale   IFR   IFR Intensivo   IFR Molto Intensivo
Visibilità : 
Base nubi : 
>= 8 km
>= 3000ft
5 / 8 km
1000 / 3000 ft
1500m / 5 km
500 / 1000 ft
800 / 1500m
200 / 500 ft
< 800m
< 200 ft
Simboli :   Temporali  Nebbia  Neve Forte  Precipitazioni Forti  Vento > 20 kt
SIGMETs :   Varie  Temporali  Ghiacco  Turbolenza  Onda orograficha  Ceneri Vulcaniche







- Altitudine del aeroporto : 75 ft
- Codice IATA : YEO


EGDY - RNAS Yeovilton

ULTIMO METAR :
  • 271150Z 07017KT CAVOK 23/14 Q1026 NOSIG RMK BLU BLU

METARs OBSOLETI :
  • 271120Z 06015KT CAVOK 22/13 Q1027 NOSIG RMK BLU BLU
  • 271050Z 06013KT CAVOK 22/14 Q1027 NOSIG RMK BLU BLU
  • 271020Z 07015KT CAVOK 21/13 Q1027 NOSIG RMK BLU BLU
  • 270950Z 04012KT CAVOK 19/13 Q1027 BLU NOSIG RMK BLU BLU
  • 270920Z 04011KT CAVOK 19/13 Q1027 NOSIG RMK BLU BLU

TAF TAF EGDY
Valido dal 27 a 12 ore il 27 a 21 ore UTC


271019Z 2712/2721 05010G20KT CAVOK
BECMG 2712/2714 08015G25KT
BECMG 2719/2721 08010KT
Nessun NOTAM noto per questo aeroporto.
1 SIGMET conosciuto per la FIR London (EGTT) :
 
Turbolenza severa
EGTT SIGMET 07 VALID 271100/271500 EGRR
EGTT LONDON FIR SEV TURB FCST S OF LINE N5035 W00800 - N5109 E00200 SFC/FL030 STNR NC=



MetMap, La meteo Aeronautica in un colpo d'occhio ! - Copyright ORBIFLY Dicembre 2007 - Disclaimer

ORBIFLY MET'MAP TEAM :

Programmazione e sviluppo : Alexandra Zaïnal
Concezione e sviluppo : Baudouin d'Aumeries
Co-Programmazione e sviluppo : Marc-Olivier Méhu
Supporto tecnico e logistico : Manuel Goepfert
Aiuto per la traduzione : Arnaldo La Scala

Contatto : metmap@orbifly.com




FONTI E CREDITI :

   NOAA